Time;durP1;ratioP1;P1;durP2;ratioP2;P2;SDS_P1;SDS_P2;PMS_P1;PMS_P2;Temp;Humidity;BMP_temperature;BMP_pressure;BME280_temperature;BME280_humidity;BME280_pressure;Samples;Min_cycle;Max_cycle;Signal;HPM_P1;HPM_P2
2022/07/09 00:01:59;;;;;;;6.30;4.28;;;;;;;16.10;87.85;102923.88;5013232;28;20154;-48
2022/07/09 00:04:25;;;;;;;6.70;4.22;;;;;;;16.09;87.79;102925.03;5013387;28;20046;-46
2022/07/09 00:06:52;;;;;;;5.30;4.03;;;;;;;16.04;87.60;102912.13;5012666;28;20439;-48
2022/07/09 00:09:18;;;;;;;4.30;3.92;;;;;;;15.99;87.77;102908.06;5013890;28;20060;-46
2022/07/09 00:11:45;;;;;;;5.03;4.10;;;;;;;15.93;88.03;102912.44;5013893;28;20376;-49
2022/07/09 00:14:11;;;;;;;4.32;3.80;;;;;;;15.84;88.55;102910.34;5011674;28;20042;-48
2022/07/09 00:16:37;;;;;;;6.13;4.40;;;;;;;15.79;88.68;102913.56;5013762;28;20509;-50
2022/07/09 00:19:04;;;;;;;4.22;3.83;;;;;;;15.72;88.76;102912.97;5012649;28;20050;-46
2022/07/09 00:21:31;;;;;;;4.68;4.28;;;;;;;15.68;89.27;102905.00;5012610;28;20054;-46
2022/07/09 00:23:57;;;;;;;5.28;4.45;;;;;;;15.73;88.57;102907.19;5013657;28;20134;-46
2022/07/09 00:26:23;;;;;;;5.25;4.30;;;;;;;15.68;88.98;102903.06;5013467;28;20061;-51
2022/07/09 00:28:50;;;;;;;4.38;4.15;;;;;;;15.66;88.90;102907.34;5013064;28;20137;-45
2022/07/09 00:31:16;;;;;;;5.97;3.97;;;;;;;15.63;88.83;102908.19;5013328;28;20503;-45
2022/07/09 00:33:42;;;;;;;5.65;4.47;;;;;;;15.64;88.85;102899.72;5012486;28;20447;-47
2022/07/09 00:36:09;;;;;;;5.05;4.55;;;;;;;15.57;88.91;102907.97;5013398;28;20066;-46
2022/07/09 00:38:35;;;;;;;5.78;4.65;;;;;;;15.55;89.04;102906.84;5012565;28;20581;-45
2022/07/09 00:41:02;;;;;;;4.97;4.50;;;;;;;15.53;89.20;102903.84;5013136;28;20046;-45
2022/07/09 00:43:30;;;;;;;5.13;4.22;;;;;;;15.53;88.96;102898.47;5012588;28;20498;-45
2022/07/09 00:45:57;;;;;;;9.45;4.50;;;;;;;15.49;89.30;102892.44;5013281;28;20055;-47
2022/07/09 00:48:23;;;;;;;4.55;4.22;;;;;;;15.48;89.20;102890.94;5011265;28;20054;-46
2022/07/09 00:50:50;;;;;;;6.55;4.20;;;;;;;15.50;89.03;102897.38;5012677;28;20138;-47
2022/07/09 00:53:20;;;;;;;4.65;4.25;;;;;;;15.51;88.78;102888.16;5013215;28;20157;-45
2022/07/09 00:55:47;;;;;;;6.57;4.32;;;;;;;15.51;88.60;102887.41;5012244;28;20059;-46
2022/07/09 00:58:16;;;;;;;4.63;4.32;;;;;;;15.46;88.73;102887.91;5013316;28;20426;-44
2022/07/09 01:00:43;;;;;;;4.90;4.43;;;;;;;15.38;89.44;102881.19;5012062;28;20050;-45
2022/07/09 01:03:10;;;;;;;7.03;4.72;;;;;;;15.36;90.21;102873.56;5012457;28;20046;-44
2022/07/09 01:05:36;;;;;;;5.10;4.57;;;;;;;15.37;90.42;102858.97;5012450;28;20054;-48
2022/07/09 01:08:05;;;;;;;5.72;5.07;;;;;;;15.42;90.20;102868.44;5012706;28;20088;-44
2022/07/09 01:10:33;;;;;;;4.93;4.53;;;;;;;15.46;89.81;102880.63;5012698;28;20057;-45
2022/07/09 01:12:59;;;;;;;5.95;4.80;;;;;;;15.47;89.46;102878.69;5014114;28;20450;-46
2022/07/09 01:15:26;;;;;;;7.78;4.80;;;;;;;15.35;90.03;102882.78;5016109;28;20058;-45
2022/07/09 01:17:52;;;;;;;7.03;4.90;;;;;;;15.26;90.19;102872.66;5016580;28;20518;-45
2022/07/09 01:20:25;;;;;;;8.07;5.43;;;;;;;15.22;90.85;102871.97;5015824;28;20046;-45
2022/07/09 01:22:52;;;;;;;6.05;5.43;;;;;;;15.19;91.03;102874.78;5015513;28;20054;-44
2022/07/09 01:25:19;;;;;;;8.93;6.32;;;;;;;15.16;91.41;102881.72;5016147;28;20056;-45
2022/07/09 01:27:46;;;;;;;6.30;5.70;;;;;;;15.11;91.58;102884.16;5015119;28;20050;-48
2022/07/09 01:30:26;;;;;;;6.38;5.75;;;;;;;15.09;91.11;102876.53;5016039;28;20054;-47
2022/07/09 01:32:54;;;;;;;6.28;5.72;;;;;;;15.06;91.31;102885.41;5016078;28;20133;-45
2022/07/09 01:35:21;;;;;;;8.07;5.85;;;;;;;15.06;91.11;102890.78;5015108;28;20065;-44
2022/07/09 01:37:47;;;;;;;6.05;5.55;;;;;;;15.06;91.01;102887.34;5016331;28;20050;-44
2022/07/09 01:40:14;;;;;;;5.90;5.40;;;;;;;15.00;91.45;102881.72;5015438;28;20502;-45
2022/07/09 01:42:40;;;;;;;6.55;6.00;;;;;;;14.88;91.54;102864.34;5015817;28;20157;-45
2022/07/09 01:45:07;;;;;;;8.25;6.88;;;;;;;14.89;91.34;102868.53;5015515;28;20050;-45
2022/07/09 01:47:33;;;;;;;6.97;5.65;;;;;;;14.92;91.13;102861.59;5015970;28;20564;-46
2022/07/09 01:50:00;;;;;;;10.27;6.47;;;;;;;14.90;91.00;102851.28;5015126;28;20058;-47
2022/07/09 01:52:29;;;;;;;6.75;6.13;;;;;;;14.86;91.37;102866.69;5015643;28;20050;-47
2022/07/09 01:54:55;;;;;;;8.95;6.47;;;;;;;14.86;91.06;102852.53;5015987;28;20058;-47
2022/07/09 01:57:21;;;;;;;7.63;6.93;;;;;;;14.86;91.44;102839.88;5015305;28;20054;-48
2022/07/09 01:59:48;;;;;;;8.98;7.70;;;;;;;14.82;91.49;102846.50;5015638;28;20058;-46
2022/07/09 02:02:14;;;;;;;11.48;8.48;;;;;;;14.82;91.74;102847.25;5014121;28;20046;-49
2022/07/09 02:04:41;;;;;;;9.43;8.43;;;;;;;14.80;91.62;102843.47;5015350;28;20472;-46
2022/07/09 02:07:07;;;;;;;8.88;7.70;;;;;;;14.76;91.78;102840.13;5015072;28;20142;-48
2022/07/09 02:09:34;;;;;;;10.35;9.00;;;;;;;14.74;92.05;102835.19;5015088;28;20054;-49
2022/07/09 02:12:00;;;;;;;9.32;8.35;;;;;;;14.75;91.96;102844.00;5014909;28;20992;-49
2022/07/09 02:14:27;;;;;;;12.77;8.65;;;;;;;14.77;91.99;102849.69;5015283;28;20051;-46
2022/07/09 02:16:53;;;;;;;12.77;9.50;;;;;;;14.76;91.62;102846.25;5015137;28;21045;-45
2022/07/09 02:19:19;;;;;;;12.52;8.55;;;;;;;14.78;91.72;102846.59;5015332;28;20054;-47
2022/07/09 02:21:46;;;;;;;10.18;8.88;;;;;;;14.74;91.68;102840.56;5013889;28;20054;-44
2022/07/09 02:24:12;;;;;;;11.88;9.60;;;;;;;14.73;91.73;102846.34;5015066;28;20062;-49
2022/07/09 02:26:39;;;;;;;10.45;8.80;;;;;;;14.74;91.84;102843.25;5014985;28;20430;-44
2022/07/09 02:29:05;;;;;;;12.20;9.80;;;;;;;14.75;92.42;102839.38;5014599;28;20054;-48
2022/07/09 02:31:31;;;;;;;12.57;9.52;;;;;;;14.80;92.70;102836.19;5014899;28;20057;-49
2022/07/09 02:33:58;;;;;;;12.05;9.95;;;;;;;14.83;92.63;102848.00;5014923;28;20058;-45
2022/07/09 02:36:25;;;;;;;12.70;9.93;;;;;;;14.84;92.66;102834.19;5014052;28;20054;-45
2022/07/09 02:38:51;;;;;;;12.30;9.48;;;;;;;14.84;92.98;102834.19;5014962;28;20561;-44
2022/07/09 02:41:18;;;;;;;12.90;9.75;;;;;;;14.85;93.09;102838.38;5014462;28;20050;-49
2022/07/09 02:43:44;;;;;;;14.38;10.82;;;;;;;14.86;93.02;102837.19;5014820;28;20055;-44
2022/07/09 02:46:11;;;;;;;13.80;10.52;;;;;;;14.89;93.00;102840.97;5013998;28;20065;-47
2022/07/09 02:48:38;;;;;;;18.38;10.68;;;;;;;14.95;93.76;102842.75;5014655;28;20494;-47
2022/07/09 02:51:04;;;;;;;12.77;10.90;;;;;;;15.03;94.01;102846.00;5013866;28;20057;-45
2022/07/09 02:53:31;;;;;;;15.95;11.15;;;;;;;15.15;94.24;102841.91;5014711;28;20050;-45
2022/07/09 02:55:57;;;;;;;22.75;15.60;;;;;;;15.23;94.89;102846.66;5014720;28;20054;-50
2022/07/09 02:58:23;;;;;;;15.93;12.48;;;;;;;15.33;94.62;102847.56;5014874;28;20050;-45
2022/07/09 03:00:50;;;;;;;21.23;14.68;;;;;;;15.38;95.14;102844.38;5012519;28;20061;-45
2022/07/09 03:03:16;;;;;;;23.00;15.68;;;;;;;15.47;95.15;102844.53;5014307;28;20058;-46
2022/07/09 03:05:43;;;;;;;22.45;16.52;;;;;;;15.50;95.56;102842.94;5014397;28;20499;-45
2022/07/09 03:08:09;;;;;;;28.77;18.10;;;;;;;15.54;95.84;102839.00;5014514;28;21037;-48
2022/07/09 03:10:36;;;;;;;28.77;18.25;;;;;;;15.59;95.64;102830.47;5014133;28;20057;-51
2022/07/09 03:13:02;;;;;;;20.67;16.65;;;;;;;15.63;94.88;102828.41;5014602;28;20424;-46
2022/07/09 03:15:31;;;;;;;23.73;17.48;;;;;;;15.67;94.83;102834.44;5014400;28;20046;-45
2022/07/09 03:17:58;;;;;;;25.02;16.33;;;;;;;15.67;94.75;102833.69;5014451;28;20055;-47
2022/07/09 03:20:25;;;;;;;22.65;16.98;;;;;;;15.64;94.57;102831.84;5014023;28;20136;-46
2022/07/09 03:22:51;;;;;;;22.23;17.25;;;;;;;15.61;95.21;102833.44;5014373;28;20149;-48
2022/07/09 03:25:17;;;;;;;22.35;17.50;;;;;;;15.63;95.39;102831.09;5014197;28;20055;-49
2022/07/09 03:27:44;;;;;;;27.33;18.45;;;;;;;15.66;95.44;102838.31;5013906;28;20055;-47
2022/07/09 03:30:11;;;;;;;25.23;18.10;;;;;;;15.72;95.46;102832.41;5014390;28;20060;-49
2022/07/09 03:32:38;;;;;;;24.08;16.95;;;;;;;15.76;95.81;102835.75;5013575;28;20064;-47
2022/07/09 03:35:05;;;;;;;24.00;17.38;;;;;;;15.76;95.64;102836.53;5013550;28;20046;-48
2022/07/09 03:37:31;;;;;;;25.67;17.60;;;;;;;15.78;95.04;102836.09;5014088;28;20049;-50
2022/07/09 03:39:58;;;;;;;22.40;16.40;;;;;;;15.80;94.85;102837.19;5014161;28;20461;-47
2022/07/09 03:42:24;;;;;;;22.67;18.10;;;;;;;15.80;95.17;102839.13;5013245;28;20051;-49
2022/07/09 03:44:51;;;;;;;24.75;17.33;;;;;;;15.78;95.03;102825.34;5014160;28;20502;-47
2022/07/09 03:47:17;;;;;;;26.33;17.45;;;;;;;15.75;94.98;102829.63;5012787;28;20058;-50
2022/07/09 03:49:43;;;;;;;22.67;17.08;;;;;;;15.73;95.24;102831.25;5013788;28;20574;-46
2022/07/09 03:52:10;;;;;;;22.75;17.17;;;;;;;15.66;95.61;102826.81;5012349;28;20065;-52
2022/07/09 03:54:43;;;;;;;23.10;16.63;;;;;;;15.59;95.15;102822.41;5013862;28;20046;-48
2022/07/09 03:57:10;;;;;;;22.27;16.33;;;;;;;15.58;94.70;102823.59;5013452;28;20054;-46
2022/07/09 03:59:37;;;;;;;23.83;16.50;;;;;;;15.56;94.41;102830.53;5013303;28;20051;-48
2022/07/09 04:02:04;;;;;;;22.95;16.80;;;;;;;15.53;94.13;102829.44;5013862;28;20141;-45
2022/07/09 04:04:38;;;;;;;18.45;15.02;;;;;;;15.47;94.48;102825.75;5013827;28;20059;-45
2022/07/09 04:07:04;;;;;;;24.70;16.38;;;;;;;15.42;94.80;102828.19;5013828;28;20046;-47
2022/07/09 04:09:31;;;;;;;24.63;17.50;;;;;;;15.41;95.17;102834.75;5012970;28;20046;-45
2022/07/09 04:11:57;;;;;;;20.17;17.52;;;;;;;15.40;95.85;102825.94;5013727;28;20506;-48
2022/07/09 04:14:23;;;;;;;21.67;17.20;;;;;;;15.48;95.98;102829.19;5013900;28;20116;-44
2022/07/09 04:16:50;;;;;;;26.20;17.58;;;;;;;15.56;95.54;102814.41;5013248;28;20061;-44
2022/07/09 04:19:17;;;;;;;22.13;16.92;;;;;;;15.61;95.73;102819.28;5013590;28;20053;-49
2022/07/09 04:21:43;;;;;;;23.13;16.63;;;;;;;15.70;95.58;102807.94;5013575;28;20055;-44
2022/07/09 04:24:09;;;;;;;24.58;16.70;;;;;;;15.78;95.35;102807.31;5012355;28;20061;-46
2022/07/09 04:26:36;;;;;;;26.02;17.38;;;;;;;15.83;95.09;102808.72;5013679;28;20651;-49
2022/07/09 04:29:02;;;;;;;25.58;16.83;;;;;;;15.90;95.67;102806.59;5013683;28;20055;-46
2022/07/09 04:31:28;;;;;;;27.30;18.48;;;;;;;16.03;94.95;102806.59;5012575;28;20054;-49
2022/07/09 04:33:55;;;;;;;26.00;18.17;;;;;;;16.12;94.77;102804.03;5013491;28;20448;-45
2022/07/09 04:36:21;;;;;;;26.60;19.95;;;;;;;16.24;94.21;102805.25;5013546;28;20057;-45
2022/07/09 04:38:48;;;;;;;27.50;20.15;;;;;;;16.33;93.48;102808.06;5012768;28;20517;-47
2022/07/09 04:41:15;;;;;;;24.33;19.77;;;;;;;16.32;93.02;102806.56;5013176;28;20058;-46
2022/07/09 04:43:41;;;;;;;29.00;19.77;;;;;;;16.29;93.15;102810.09;5012852;28;20047;-48
2022/07/09 04:46:07;;;;;;;26.10;20.17;;;;;;;16.30;93.22;102800.84;5012821;28;20517;-46
2022/07/09 04:48:34;;;;;;;28.80;20.52;;;;;;;16.33;93.17;102797.31;5014954;28;20054;-49
2022/07/09 04:51:01;;;;;;;27.50;20.75;;;;;;;16.39;92.73;102800.97;5015266;28;20062;-44
2022/07/09 04:53:27;;;;;;;28.40;20.58;;;;;;;16.47;92.59;102796.09;5016195;28;20051;-50
2022/07/09 04:55:54;;;;;;;26.92;20.67;;;;;;;16.60;91.93;102797.63;5016612;28;20141;-50
2022/07/09 04:58:20;;;;;;;28.67;20.42;;;;;;;16.70;91.64;102795.81;5014675;28;20054;-48
2022/07/09 05:00:47;;;;;;;27.38;20.92;;;;;;;16.79;91.39;102801.28;5016334;28;20070;-50
2022/07/09 05:03:13;;;;;;;28.25;20.25;;;;;;;16.95;91.22;102797.69;5015925;28;20054;-48
2022/07/09 05:05:40;;;;;;;33.38;21.73;;;;;;;16.98;90.46;102797.56;5015978;28;20054;-50
2022/07/09 05:08:15;;;;;;;27.88;20.48;;;;;;;16.99;90.55;102787.56;5016622;28;20059;-47
2022/07/09 05:10:42;;;;;;;25.15;20.73;;;;;;;17.23;90.30;102788.66;5016378;28;20088;-46
2022/07/09 05:13:08;;;;;;;36.97;22.02;;;;;;;17.25;89.23;102780.16;5016293;28;20051;-50
2022/07/09 05:15:34;;;;;;;35.55;22.02;;;;;;;17.31;89.03;102781.84;5016366;28;20061;-48
2022/07/09 05:18:01;;;;;;;26.65;21.27;;;;;;;17.47;88.36;102785.56;5016266;28;20426;-45
2022/07/09 05:20:28;;;;;;;27.30;21.20;;;;;;;17.58;87.40;102786.72;5015617;28;20148;-50
2022/07/09 05:22:54;;;;;;;29.30;21.48;;;;;;;17.60;87.68;102778.91;5016358;28;20065;-47
2022/07/09 05:25:20;;;;;;;26.77;22.05;;;;;;;17.63;87.42;102785.38;5015455;28;20142;-45
2022/07/09 05:27:47;;;;;;;27.67;20.55;;;;;;;17.67;87.93;102786.03;5016310;28;20050;-50
2022/07/09 05:30:15;;;;;;;25.33;20.77;;;;;;;17.60;87.90;102780.84;5015474;28;20423;-46
2022/07/09 05:32:45;;;;;;;;;;;;;;;17.46;87.79;102781.38;5016467;28;20114;-46
2022/07/09 05:35:12;;;;;;;24.27;18.92;;;;;;;17.37;89.37;102779.38;5015757;28;20012;-45
2022/07/09 05:37:42;;;;;;;28.63;20.45;;;;;;;17.32;89.62;102780.66;5016067;28;20056;-46
2022/07/09 05:40:10;;;;;;;26.57;20.50;;;;;;;17.34;88.72;102781.00;5015352;28;20149;-45
2022/07/09 05:42:36;;;;;;;24.58;19.38;;;;;;;17.51;88.44;102784.25;5015984;28;20276;-44
2022/07/09 05:45:03;;;;;;;26.13;19.15;;;;;;;17.66;88.01;102776.44;5014930;28;20061;-46
2022/07/09 05:47:30;;;;;;;19.58;17.48;;;;;;;18.86;83.83;102786.50;5015564;28;20085;-46
2022/07/09 05:49:56;;;;;;;18.27;16.33;;;;;;;19.78;79.30;102789.94;5013216;28;20063;-51
2022/07/09 05:52:23;;;;;;;17.55;15.57;;;;;;;19.31;80.29;102785.75;5015293;28;20054;-48
2022/07/09 05:54:49;;;;;;;19.83;16.05;;;;;;;18.76;82.34;102799.25;5015767;28;20454;-45
2022/07/09 05:57:15;;;;;;;19.85;17.10;;;;;;;18.37;84.44;102789.97;5015427;28;20122;-50
2022/07/09 05:59:42;;;;;;;19.73;17.00;;;;;;;18.27;84.86;102785.72;5013715;28;20070;-47
2022/07/09 06:02:08;;;;;;;18.40;16.50;;;;;;;18.35;84.85;102789.66;5014834;28;20133;-49
2022/07/09 06:04:34;;;;;;;20.15;17.15;;;;;;;18.43;84.56;102792.81;5015282;28;20501;-46
2022/07/09 06:07:01;;;;;;;17.55;15.75;;;;;;;19.05;81.89;102792.69;5014505;28;20232;-51
2022/07/09 06:09:27;;;;;;;17.27;15.43;;;;;;;19.45;79.73;102790.56;5014768;28;20054;-45
2022/07/09 06:11:54;;;;;;;16.92;14.90;;;;;;;20.44;76.68;102789.97;5014974;28;20054;-45
2022/07/09 06:14:20;;;;;;;18.90;14.98;;;;;;;20.79;73.39;102801.81;5013939;28;20055;-46
2022/07/09 06:16:55;;;;;;;16.05;14.48;;;;;;;19.95;76.38;102799.94;5015145;28;20074;-48
2022/07/09 06:19:22;;;;;;;14.10;12.70;;;;;;;20.15;76.45;102801.38;5014790;28;20475;-46
2022/07/09 06:21:49;;;;;;;14.90;13.43;;;;;;;20.66;74.30;102801.28;5014002;28;20094;-44
2022/07/09 06:24:16;;;;;;;14.00;12.65;;;;;;;20.36;75.09;102799.63;5014537;28;20491;-48
2022/07/09 06:26:42;;;;;;;12.18;11.00;;;;;;;19.75;77.86;102796.25;5015464;28;20061;-45
2022/07/09 06:29:09;;;;;;;13.77;11.00;;;;;;;19.40;80.22;102801.97;5014427;28;20082;-45
2022/07/09 06:31:35;;;;;;;17.38;13.30;;;;;;;19.10;80.96;102794.78;5014838;28;20065;-47
2022/07/09 06:34:02;;;;;;;14.45;12.38;;;;;;;18.99;82.35;102793.25;5013974;28;20046;-48
2022/07/09 06:36:29;;;;;;;16.30;12.70;;;;;;;18.94;82.60;102799.25;5011229;28;20050;-50
2022/07/09 06:41:42;;;;;;;14.68;12.70;;;;;;;19.15;82.57;102796.88;5020320;28;20054;-49
2022/07/09 06:44:08;;;;;;;12.57;11.38;;;;;;;19.84;81.44;102798.91;5013270;28;20050;-45
2022/07/09 06:46:35;;;;;;;10.63;9.63;;;;;;;20.87;76.59;102802.94;5013891;28;20042;-45
2022/07/09 06:49:02;;;;;;;9.90;8.90;;;;;;;21.36;72.98;102795.53;5014431;28;20146;-45
2022/07/09 06:51:28;;;;;;;7.93;7.30;;;;;;;20.85;73.57;102794.53;5013856;28;20054;-45
2022/07/09 06:53:55;;;;;;;7.85;6.72;;;;;;;20.76;75.85;102802.75;5029801;28;20054;-50
2022/07/09 06:56:22;;;;;;;7.03;6.30;;;;;;;21.27;76.55;102802.50;5014178;28;20052;-49
2022/07/09 06:58:49;;;;;;;6.20;5.70;;;;;;;25.27;63.01;102809.06;5014992;28;20055;-46
2022/07/09 07:01:15;;;;;;;6.47;5.97;;;;;;;25.55;57.43;102806.38;5014874;28;20134;-49
2022/07/09 07:03:42;;;;;;;6.20;5.60;;;;;;;24.53;60.98;102805.84;5014044;28;20647;-48
2022/07/09 07:06:08;;;;;;;5.57;5.03;;;;;;;24.72;60.26;102798.75;5014663;28;20054;-48
2022/07/09 07:08:35;;;;;;;7.03;4.38;;;;;;;26.32;56.14;102797.88;5012563;28;20054;-45
2022/07/09 07:11:02;;;;;;;6.28;4.53;;;;;;;25.39;57.55;102796.19;5013206;28;20069;-51
2022/07/09 07:13:28;;;;;;;5.97;4.40;;;;;;;25.14;56.79;102792.47;5014398;28;20140;-47
2022/07/09 07:15:55;;;;;;;5.38;4.90;;;;;;;25.87;55.27;102798.69;5013939;28;20057;-45
2022/07/09 07:18:21;;;;;;;4.60;4.28;;;;;;;25.09;55.73;102795.16;5014435;28;20557;-46
2022/07/09 07:20:48;;;;;;;5.40;5.00;;;;;;;24.15;58.80;102796.97;5013734;28;20042;-45
2022/07/09 07:23:15;;;;;;;6.50;4.65;;;;;;;26.03;56.51;102807.34;5013959;28;20050;-45
2022/07/09 07:25:41;;;;;;;5.03;4.63;;;;;;;26.89;52.03;102803.31;5014495;28;20050;-45
2022/07/09 07:28:07;;;;;;;5.00;4.50;;;;;;;25.20;56.89;102800.63;5013603;28;20133;-48
2022/07/09 07:30:35;;;;;;;8.25;5.20;;;;;;;24.09;59.30;102798.91;5013924;28;20054;-46
2022/07/09 07:33:01;;;;;;;6.18;5.72;;;;;;;23.18;63.13;102811.47;5011552;28;20499;-45
2022/07/09 07:35:28;;;;;;;6.03;5.55;;;;;;;22.61;64.83;102798.44;5013968;28;20054;-46
2022/07/09 07:37:54;;;;;;;7.03;5.85;;;;;;;22.13;65.72;102798.78;5013619;28;20046;-45
2022/07/09 07:40:20;;;;;;;7.70;6.75;;;;;;;21.71;67.87;102801.03;5013315;28;20051;-46
2022/07/09 07:42:47;;;;;;;8.23;6.38;;;;;;;21.40;69.41;102804.97;5012261;28;20058;-45
2022/07/09 07:45:13;;;;;;;6.68;6.18;;;;;;;21.39;69.84;102797.31;5013608;28;20487;-45
2022/07/09 07:47:40;;;;;;;6.68;6.00;;;;;;;21.81;68.96;102794.31;5012877;28;20057;-45
2022/07/09 07:50:07;;;;;;;6.22;5.15;;;;;;;22.34;68.94;102787.97;5012393;28;20058;-44
2022/07/09 07:52:33;;;;;;;8.18;6.20;;;;;;;22.67;65.90;102787.66;5009611;28;20058;-45
2022/07/09 07:55:00;;;;;;;11.02;5.70;;;;;;;22.82;65.56;102778.22;5013146;28;20457;-45
2022/07/09 07:57:26;;;;;;;5.78;5.38;;;;;;;22.63;66.97;102777.75;5011452;28;20490;-45
2022/07/09 07:59:52;;;;;;;7.85;5.28;;;;;;;22.53;67.20;102781.81;5008517;28;20525;-46
2022/07/09 08:02:19;;;;;;;11.55;5.93;;;;;;;22.14;68.18;102785.97;5010864;28;20054;-45
2022/07/09 08:04:45;;;;;;;5.70;5.00;;;;;;;22.07;69.13;102780.94;5011587;28;20047;-45
2022/07/09 08:07:12;;;;;;;9.57;4.80;;;;;;;21.79;69.86;102775.81;5014852;28;20050;-44
2022/07/09 08:09:38;;;;;;;4.47;4.10;;;;;;;21.80;70.01;102784.69;5009798;28;20070;-45
2022/07/09 08:12:05;;;;;;;5.47;4.35;;;;;;;21.69;70.34;102779.06;5011186;28;20059;-45
2022/07/09 08:14:32;;;;;;;4.70;4.30;;;;;;;21.83;72.53;102778.31;5010913;28;20050;-52
2022/07/09 08:16:58;;;;;;;4.80;4.40;;;;;;;21.90;69.35;102778.69;5012419;28;20142;-45
2022/07/09 08:19:25;;;;;;;8.18;4.82;;;;;;;21.95;67.10;102780.75;5011355;28;20513;-45
2022/07/09 08:21:58;;;;;;;4.38;3.97;;;;;;;21.77;69.06;102772.81;5014742;28;20152;-46
2022/07/09 08:24:24;;;;;;;10.63;4.68;;;;;;;21.47;70.25;102780.22;5017092;28;20344;-47
2022/07/09 08:26:51;;;;;;;9.52;5.50;;;;;;;21.21;71.01;102790.06;5016211;28;20054;-46
2022/07/09 08:29:17;;;;;;;6.72;5.07;;;;;;;21.15;71.01;102791.94;5016752;28;20089;-47
2022/07/09 08:31:44;;;;;;;4.82;4.32;;;;;;;21.07;71.79;102786.13;5017133;28;20054;-45
2022/07/09 08:34:10;;;;;;;4.72;3.72;;;;;;;21.21;70.64;102782.69;5015111;28;20050;-47
2022/07/09 08:36:36;;;;;;;4.25;3.30;;;;;;;21.67;67.96;102784.22;5016834;28;20471;-47
2022/07/09 08:39:03;;;;;;;2.80;2.60;;;;;;;22.30;66.33;102777.31;5017087;28;20057;-46
2022/07/09 08:41:29;;;;;;;2.78;2.58;;;;;;;22.68;66.88;102773.63;5016134;28;20512;-45
2022/07/09 08:43:56;;;;;;;2.17;2.08;;;;;;;22.61;61.83;102779.44;5016700;28;20119;-45
2022/07/09 08:46:23;;;;;;;1.73;1.63;;;;;;;22.65;65.32;102780.00;5015368;28;20089;-46
2022/07/09 08:48:49;;;;;;;2.80;1.90;;;;;;;22.67;62.27;102782.22;5016357;28;20054;-46
2022/07/09 08:51:17;;;;;;;4.28;2.03;;;;;;;22.70;63.26;102782.03;5015888;28;20513;-48
2022/07/09 08:53:44;;;;;;;2.50;2.30;;;;;;;22.93;60.92;102777.63;5016641;28;20490;-50
2022/07/09 08:56:11;;;;;;;4.72;2.03;;;;;;;23.13;59.01;102779.56;5015941;28;20051;-47
2022/07/09 08:58:38;;;;;;;5.35;2.00;;;;;;;23.25;60.99;102781.16;5016842;28;20050;-45
2022/07/09 09:01:06;;;;;;;2.10;2.00;;;;;;;22.88;62.22;102772.88;5015913;28;20490;-45
2022/07/09 09:03:33;;;;;;;2.72;2.40;;;;;;;22.36;60.42;102771.97;5016167;28;20141;-45
2022/07/09 09:06:05;;;;;;;2.80;1.67;;;;;;;21.87;63.67;102781.59;5016241;28;20061;-49
2022/07/09 09:08:39;;;;;;;2.58;1.42;;;;;;;21.70;66.56;102775.91;5015778;28;20517;-47
2022/07/09 09:11:07;;;;;;;2.65;1.60;;;;;;;21.99;65.11;102779.81;5016138;28;20510;-47
2022/07/09 09:13:40;;;;;;;2.17;1.70;;;;;;;22.72;62.25;102771.44;5015698;28;20517;-45
2022/07/09 09:16:09;;;;;;;2.72;1.90;;;;;;;23.06;61.41;102769.13;5013876;28;20050;-46
2022/07/09 09:18:40;;;;;;;2.83;1.98;;;;;;;23.14;60.25;102770.19;5012509;28;20051;-48
2022/07/09 09:21:08;;;;;;;1.58;1.48;;;;;;;23.21;62.03;102769.75;5014759;28;20219;-45
2022/07/09 09:23:52;;;;;;;2.97;1.50;;;;;;;23.27;60.57;102767.81;5011116;28;20054;-46
2022/07/09 09:26:20;;;;;;;1.80;1.70;;;;;;;23.32;60.10;102772.56;5014178;28;20062;-45
2022/07/09 09:28:52;;;;;;;2.58;1.63;;;;;;;23.26;60.62;102772.50;5014759;28;20050;-46
2022/07/09 09:31:22;;;;;;;3.35;1.80;;;;;;;23.16;60.39;102767.75;5014468;28;20046;-46
2022/07/09 09:33:50;;;;;;;6.38;1.92;;;;;;;22.97;59.72;102766.53;5013959;28;20093;-44
2022/07/09 09:36:34;;;;;;;5.55;1.55;;;;;;;22.78;61.75;102761.44;5015284;28;20225;-45
2022/07/09 09:39:09;;;;;;;2.05;1.85;;;;;;;23.18;63.74;102766.03;5015015;28;20073;-46
2022/07/09 09:41:35;;;;;;;4.10;2.35;;;;;;;23.21;60.08;102769.75;5010708;28;20061;-44
2022/07/09 09:44:09;;;;;;;3.33;1.60;;;;;;;22.97;61.16;102766.53;5014962;28;20066;-45
2022/07/09 09:46:40;;;;;;;2.72;1.73;;;;;;;22.51;60.68;102765.25;5015068;28;20112;-44
2022/07/09 09:49:08;;;;;;;1.60;1.50;;;;;;;22.32;62.59;102768.72;5014413;28;20050;-47
2022/07/09 09:51:56;;;;;;;1.92;1.67;;;;;;;22.09;62.64;102767.63;5013205;28;20097;-45
2022/07/09 09:54:23;;;;;;;1.70;1.60;;;;;;;22.00;63.66;102765.75;5010931;28;20050;-44
2022/07/09 09:56:49;;;;;;;2.88;1.85;;;;;;;22.14;61.98;102770.44;5015558;28;20514;-46
2022/07/09 09:59:16;;;;;;;1.27;1.27;;;;;;;22.45;61.46;102774.53;5015538;28;20057;-44
2022/07/09 10:01:44;;;;;;;4.35;1.40;;;;;;;23.25;61.92;102789.28;5014684;28;20477;-45
2022/07/09 10:04:12;;;;;;;1.25;1.20;;;;;;;24.37;58.74;102790.94;5015510;28;20051;-44
2022/07/09 10:06:40;;;;;;;1.13;1.08;;;;;;;24.20;55.47;102796.25;5015595;28;20092;-45
2022/07/09 10:09:07;;;;;;;0.90;0.90;;;;;;;23.79;56.46;102790.28;5014777;28;20050;-45
2022/07/09 10:11:40;;;;;;;3.20;0.93;;;;;;;23.10;57.14;102785.94;5015151;28;20053;-45
2022/07/09 10:14:08;;;;;;;2.22;1.10;;;;;;;22.96;57.19;102784.81;5014996;28;20050;-45
2022/07/09 10:16:36;;;;;;;2.28;1.10;;;;;;;23.03;57.14;102797.97;5011692;28;20060;-46
2022/07/09 10:19:04;;;;;;;4.13;1.10;;;;;;;23.38;57.92;102800.53;5013451;28;20471;-45
2022/07/09 10:21:41;;;;;;;3.17;1.30;;;;;;;23.58;55.92;102797.06;5009640;28;20449;-49
2022/07/09 10:24:11;;;;;;;2.45;0.95;;;;;;;24.04;54.98;102799.59;5013604;28;20101;-47
2022/07/09 10:26:44;;;;;;;2.78;1.45;;;;;;;25.47;53.23;102797.19;5009614;28;20054;-45
2022/07/09 10:29:27;;;;;;;1.15;1.05;;;;;;;25.64;50.76;102805.41;5011361;28;20053;-45
2022/07/09 10:31:54;;;;;;;1.67;1.17;;;;;;;25.75;48.69;102807.38;5011763;28;20499;-46
2022/07/09 10:34:34;;;;;;;1.85;1.55;;;;;;;25.68;50.58;102799.69;5009585;28;20908;-46
2022/07/09 10:37:04;;;;;;;1.10;1.10;;;;;;;25.62;50.73;102798.91;5011603;28;20062;-53
2022/07/09 10:39:32;;;;;;;1.43;1.20;;;;;;;25.92;48.19;102797.22;5011320;28;20188;-46
2022/07/09 10:42:06;;;;;;;1.00;0.90;;;;;;;26.13;49.06;102795.66;5009837;28;20054;-49
2022/07/09 10:44:39;;;;;;;5.03;1.27;;;;;;;26.18;51.77;102797.63;5012914;28;20051;-47
2022/07/09 10:47:06;;;;;;;2.05;0.90;;;;;;;26.56;48.41;102796.03;5012960;28;20081;-47
2022/07/09 10:49:38;;;;;;;4.15;1.02;;;;;;;26.81;46.06;102787.97;5012859;28;20167;-53
2022/07/09 10:52:05;;;;;;;;;;;;;;;26.62;48.45;102787.09;5014021;28;20058;-51
2022/07/09 10:54:33;;;;;;;3.92;1.20;;;;;;;27.14;47.18;102792.53;5010333;28;20382;-50
2022/07/09 10:57:00;;;;;;;1.40;0.90;;;;;;;26.63;46.51;102805.69;5012444;28;20057;-51
2022/07/09 10:59:26;;;;;;;2.10;1.10;;;;;;;26.85;45.96;102805.56;5013487;28;20141;-47
2022/07/09 11:01:55;;;;;;;3.85;1.20;;;;;;;26.72;46.07;102796.47;5011747;28;20528;-46
2022/07/09 11:04:30;;;;;;;3.55;1.20;;;;;;;26.14;45.44;102802.59;5013808;28;20050;-47
2022/07/09 11:06:58;;;;;;;1.13;1.10;;;;;;;24.99;49.53;102802.06;5013895;28;20454;-47
2022/07/09 11:09:30;;;;;;;1.08;0.90;;;;;;;25.09;49.10;102797.91;5008857;28;20089;-49
2022/07/09 11:11:56;;;;;;;4.40;1.27;;;;;;;24.93;48.63;102804.75;5013475;28;20050;-49
2022/07/09 11:14:23;;;;;;;1.02;1.00;;;;;;;25.99;47.43;102812.34;5013028;28;20130;-54
2022/07/09 11:16:54;;;;;;;1.10;1.00;;;;;;;26.07;45.33;102819.50;5013333;28;20048;-50
2022/07/09 11:19:21;;;;;;;1.88;1.20;;;;;;;25.03;48.53;102802.59;5011833;28;20061;-47
2022/07/09 11:21:49;;;;;;;1.48;1.20;;;;;;;24.66;51.23;102811.59;5012793;28;20068;-50
2022/07/09 11:24:18;;;;;;;2.38;1.23;;;;;;;24.46;50.50;102815.22;5013540;28;20077;-49